Time;durP1;ratioP1;P1;durP2;ratioP2;P2;SDS_P1;SDS_P2;PMS_P1;PMS_P2;Temp;Humidity;BMP_temperature;BMP_pressure;BME280_temperature;BME280_humidity;BME280_pressure;Samples;Min_cycle;Max_cycle;Signal;HPM_P1;HPM_P2
2021/11/17 02:26:50;;;;;;;17.70;9.30;;;7.50;89.10;;;;;;4981337;28;20065;-68
2021/11/17 02:29:43;;;;;;;15.73;8.00;;;7.60;89.20;;;;;;4920087;29;20036;-68
2021/11/17 02:32:47;;;;;;;16.10;8.18;;;7.60;88.50;;;;;;4965683;28;20030;-68
2021/11/17 02:35:25;;;;;;;17.88;8.95;;;7.60;88.60;;;;;;4970593;28;20113;-68
2021/11/17 02:38:05;;;;;;;17.85;8.27;;;7.50;88.70;;;;;;4965270;28;20069;-70
2021/11/17 02:40:43;;;;;;;17.30;8.90;;;7.50;88.20;;;;;;4968533;28;20050;-68
2021/11/17 02:43:18;;;;;;;19.63;9.45;;;7.50;88.80;;;;;;4975137;28;20426;-68
2021/11/17 02:45:53;;;;;;;17.73;9.52;;;7.40;89.00;;;;;;4964544;28;20482;-67
2021/11/17 02:48:24;;;;;;;19.98;9.75;;;7.40;89.30;;;;;;4968038;28;20891;-68
2021/11/17 02:51:07;;;;;;;20.33;9.38;;;7.40;89.20;;;;;;4973113;28;20046;-68
2021/11/17 02:53:40;;;;;;;19.67;9.30;;;7.40;89.40;;;;;;4983649;28;20035;-68
2021/11/17 02:56:36;;;;;;;16.35;8.73;;;7.40;89.40;;;;;;4984517;28;20041;-68
2021/11/17 02:59:21;;;;;;;19.45;8.65;;;7.40;89.40;;;;;;4965802;28;20150;-68
2021/11/17 03:01:46;;;;;;;16.85;7.72;;;7.40;89.10;;;;;;4971532;28;20038;-68
2021/11/17 03:04:31;;;;;;;15.90;7.55;;;7.40;88.90;;;;;;4965567;28;20041;-67
2021/11/17 03:06:56;;;;;;;17.13;8.23;;;7.30;89.10;;;;;;4968546;28;20510;-67
2021/11/17 03:09:43;;;;;;;12.00;6.40;;;7.20;89.20;;;;;;4966104;28;20034;-68
2021/11/17 03:12:22;;;;;;;15.13;7.57;;;7.30;89.80;;;;;;4969329;28;20147;-67
2021/11/17 03:15:00;;;;;;;19.50;7.82;;;7.30;89.80;;;;;;4967530;28;20034;-67
2021/11/17 03:17:26;;;;;;;17.25;8.52;;;7.30;89.90;;;;;;4962618;28;20475;-67
2021/11/17 03:20:00;;;;;;;16.17;7.07;;;7.30;90.00;;;;;;4969407;28;20027;-68
2021/11/17 03:22:45;;;;;;;16.05;8.65;;;7.30;89.80;;;;;;4967964;28;20049;-67
2021/11/17 03:25:16;;;;;;;18.83;8.10;;;7.30;89.90;;;;;;4967188;28;20042;-67
2021/11/17 03:28:00;;;;;;;18.63;8.80;;;7.30;89.80;;;;;;4962651;28;20038;-67
2021/11/17 03:30:35;;;;;;;16.88;8.40;;;7.30;90.10;;;;;;4977963;28;20703;-67
2021/11/17 03:33:33;;;;;;;20.02;7.60;;;7.20;90.20;;;;;;4966858;28;20030;-67
2021/11/17 03:36:34;;;;;;;17.42;7.85;;;7.20;90.20;;;;;;4943381;28;20045;-67
2021/11/17 03:39:18;;;;;;;15.25;7.55;;;7.20;90.40;;;;;;4975810;28;20038;-68
2021/11/17 03:42:03;;;;;;;15.85;7.93;;;7.00;90.40;;;;;;4969925;28;20113;-67
2021/11/17 03:45:09;;;;;;;16.77;7.88;;;7.10;90.30;;;;;;4979687;28;20035;-68
2021/11/17 03:47:51;;;;;;;14.68;6.93;;;7.10;90.40;;;;;;4977838;28;20126;-67
2021/11/17 03:50:40;;;;;;;11.50;6.10;;;7.10;90.40;;;;;;4982795;28;20771;-67
2021/11/17 03:53:33;;;;;;;10.98;5.80;;;7.00;90.10;;;;;;4958039;28;20097;-67
2021/11/17 03:56:10;;;;;;;12.43;6.40;;;7.10;90.20;;;;;;4972961;28;20792;-67
2021/11/17 03:58:45;;;;;;;14.18;6.38;;;7.10;89.60;;;;;;4968693;28;20034;-67
2021/11/17 04:01:26;;;;;;;12.32;6.47;;;7.10;89.40;;;;;;4964543;28;20745;-67
2021/11/17 04:04:07;;;;;;;13.95;6.28;;;7.10;89.50;;;;;;4968526;28;20034;-68
2021/11/17 04:06:51;;;;;;;13.98;6.45;;;7.00;90.00;;;;;;4982865;28;20047;-68
2021/11/17 04:09:41;;;;;;;12.10;5.55;;;7.00;90.30;;;;;;4972159;28;20031;-69
2021/11/17 04:12:20;;;;;;;11.38;6.28;;;7.00;90.40;;;;;;4982409;28;20049;-67
2021/11/17 04:14:48;;;;;;;14.27;6.53;;;7.10;90.30;;;;;;4974186;28;20035;-67
2021/11/17 04:17:29;;;;;;;15.43;7.30;;;7.10;90.30;;;;;;4975190;28;20058;-67
2021/11/17 04:20:03;;;;;;;17.20;7.70;;;7.10;90.70;;;;;;4972411;28;20071;-67
2021/11/17 04:22:41;;;;;;;17.45;7.70;;;7.20;90.40;;;;;;4972330;28;20049;-68
2021/11/17 04:25:10;;;;;;;14.57;7.43;;;7.20;90.40;;;;;;4967825;28;20487;-67
2021/11/17 04:28:00;;;;;;;17.10;7.90;;;7.20;90.50;;;;;;4968037;28;20046;-67
2021/11/17 04:30:51;;;;;;;14.35;7.07;;;7.20;90.50;;;;;;4982932;28;20035;-67
2021/11/17 04:33:22;;;;;;;16.77;7.00;;;7.20;90.70;;;;;;4971004;28;20049;-67
2021/11/17 04:36:01;;;;;;;12.23;6.55;;;7.20;90.80;;;;;;4980782;28;20157;-67
2021/11/17 04:38:57;;;;;;;15.57;7.55;;;7.20;90.80;;;;;;4975894;28;20038;-67
2021/11/17 04:41:32;;;;;;;16.05;7.13;;;7.20;91.00;;;;;;4974891;28;20057;-67
2021/11/17 04:44:22;;;;;;;15.27;7.15;;;7.20;90.90;;;;;;4969884;28;20034;-67
2021/11/17 04:47:23;;;;;;;15.75;7.32;;;7.20;90.90;;;;;;4972401;28;20039;-67
2021/11/17 04:50:16;;;;;;;12.90;6.00;;;7.10;91.00;;;;;;4979595;28;20049;-67
2021/11/17 04:52:47;;;;;;;14.10;5.72;;;7.00;90.70;;;;;;4975346;28;20124;-67
2021/11/17 04:55:19;;;;;;;10.77;5.82;;;7.00;90.90;;;;;;4977381;28;20101;-67
2021/11/17 04:57:58;;;;;;;11.23;5.85;;;7.00;91.10;;;;;;4969208;28;20043;-67
2021/11/17 05:00:58;;;;;;;12.95;6.25;;;6.90;91.00;;;;;;4971045;28;20022;-67
2021/11/17 05:03:36;;;;;;;14.93;6.80;;;7.00;91.10;;;;;;4987931;28;20035;-67
2021/11/17 05:06:11;;;;;;;15.30;6.85;;;7.00;91.00;;;;;;4973141;28;20722;-67
2021/11/17 05:08:55;;;;;;;15.07;6.50;;;7.00;91.00;;;;;;4970438;28;20698;-67
2021/11/17 05:11:30;;;;;;;14.80;6.85;;;7.00;91.10;;;;;;4970292;28;20049;-67
2021/11/17 05:14:28;;;;;;;12.18;6.25;;;7.00;91.10;;;;;;4968257;28;20084;-67
2021/11/17 05:17:00;;;;;;;15.00;6.85;;;7.00;91.10;;;;;;4939609;28;20129;-67
2021/11/17 05:19:46;;;;;;;12.40;6.38;;;7.00;91.10;;;;;;4975870;28;20023;-67
2021/11/17 05:22:21;;;;;;;;;;;7.00;91.20;;;;;;4974840;28;20482;-68
2021/11/17 05:25:10;;;;;;;16.48;7.43;;;6.90;91.00;;;;;;4970865;28;20674;-67
2021/11/17 05:28:07;;;;;;;15.20;7.88;;;6.80;91.20;;;;;;4968504;28;20046;-67
2021/11/17 05:30:43;;;;;;;14.95;7.13;;;6.80;91.40;;;;;;4975138;28;20062;-67
2021/11/17 05:33:09;;;;;;;14.45;7.50;;;6.70;91.80;;;;;;4975787;28;20090;-67
2021/11/17 05:36:12;;;;;;;13.30;6.80;;;6.60;91.80;;;;;;4976747;28;20027;-67
2021/11/17 05:39:14;;;;;;;15.52;7.90;;;6.50;92.00;;;;;;4986303;28;20034;-67
2021/11/17 05:42:10;;;;;;;17.33;8.07;;;6.60;92.00;;;;;;4984641;28;20049;-68
2021/11/17 05:44:54;;;;;;;14.75;7.00;;;6.60;92.40;;;;;;4970095;28;20873;-67
2021/11/17 05:47:34;;;;;;;13.75;7.07;;;6.60;91.80;;;;;;4972719;28;20758;-68
2021/11/17 05:50:38;;;;;;;14.77;7.40;;;6.60;91.90;;;;;;4976411;28;20042;-67
2021/11/17 05:53:13;;;;;;;15.38;7.85;;;6.60;91.90;;;;;;4962813;28;20061;-67
2021/11/17 05:56:11;;;;;;;18.17;7.95;;;6.60;91.80;;;;;;4978257;28;20045;-67
2021/11/17 05:58:51;;;;;;;14.02;7.45;;;6.70;91.90;;;;;;4908880;28;20542;-68
2021/11/17 06:01:47;;;;;;;13.85;7.20;;;6.70;91.80;;;;;;4974190;28;20735;-67
2021/11/17 06:04:12;;;;;;;25.33;7.72;;;6.70;91.90;;;;;;4987758;28;20058;-67
2021/11/17 06:06:39;;;;;;;15.32;7.25;;;6.70;91.80;;;;;;4977951;28;20114;-67
2021/11/17 06:09:07;;;;;;;15.50;7.25;;;6.70;91.60;;;;;;4976768;28;20892;-67
2021/11/17 06:11:44;;;;;;;16.02;6.65;;;6.80;91.60;;;;;;4977275;28;20042;-67
2021/11/17 06:14:17;;;;;;;12.73;6.28;;;6.80;91.40;;;;;;4965357;28;20050;-68
2021/11/17 06:16:54;;;;;;;12.85;6.10;;;6.70;91.60;;;;;;4978777;28;20041;-67
2021/11/17 06:19:22;;;;;;;15.27;7.60;;;6.60;91.60;;;;;;4972530;28;20170;-67
2021/11/17 06:21:48;;;;;;;14.40;7.60;;;6.70;91.50;;;;;;4969288;28;20109;-67
2021/11/17 06:24:18;;;;;;;16.85;6.63;;;6.70;91.50;;;;;;4976576;28;20105;-67
2021/11/17 06:26:45;;;;;;;12.18;6.07;;;6.60;91.60;;;;;;4977827;28;20039;-68
2021/11/17 06:29:22;;;;;;;12.60;6.68;;;6.60;92.00;;;;;;4965347;28;20034;-68
2021/11/17 06:31:49;;;;;;;11.50;6.68;;;6.60;92.00;;;;;;4974754;28;20130;-67
2021/11/17 06:34:23;;;;;;;13.90;6.95;;;6.60;91.80;;;;;;4972706;28;20046;-68
2021/11/17 06:36:48;;;;;;;11.75;6.35;;;6.70;91.80;;;;;;4977670;28;20113;-67
2021/11/17 06:39:14;;;;;;;13.80;7.05;;;6.70;91.80;;;;;;4971669;28;20053;-67
2021/11/17 06:41:40;;;;;;;14.73;7.10;;;6.70;91.60;;;;;;4973557;28;20042;-68
2021/11/17 06:44:05;;;;;;;13.05;7.03;;;6.70;91.60;;;;;;4975923;28;20537;-67
2021/11/17 06:46:31;;;;;;;12.57;6.55;;;6.70;91.70;;;;;;4972476;28;20489;-67
2021/11/17 06:48:57;;;;;;;14.80;6.97;;;6.70;91.80;;;;;;4975059;28;20061;-67
2021/11/17 06:51:22;;;;;;;14.30;6.90;;;6.70;91.80;;;;;;4988842;28;20027;-67
2021/11/17 06:53:48;;;;;;;11.02;6.03;;;6.70;91.80;;;;;;4972048;28;20048;-68
2021/11/17 06:56:17;;;;;;;12.45;6.60;;;6.80;91.80;;;;;;4972755;28;20045;-67
2021/11/17 06:58:42;;;;;;;11.77;7.05;;;6.80;91.80;;;;;;4974897;28;20605;-67
2021/11/17 07:01:08;;;;;;;11.90;6.90;;;6.90;91.70;;;;;;4973652;28;20030;-67
2021/11/17 07:03:33;;;;;;;13.35;6.50;;;6.90;91.40;;;;;;4977566;28;20034;-67
2021/11/17 07:05:59;;;;;;;16.48;7.10;;;6.90;91.50;;;;;;4970467;28;20030;-67
2021/11/17 07:08:25;;;;;;;15.18;6.05;;;6.80;91.40;;;;;;4969691;28;20029;-67
2021/11/17 07:10:51;;;;;;;17.55;7.63;;;6.80;91.60;;;;;;4966889;28;20037;-67
2021/11/17 07:13:17;;;;;;;14.80;6.97;;;6.80;91.70;;;;;;4968428;28;20031;-67
2021/11/17 07:15:43;;;;;;;14.45;6.78;;;6.80;91.70;;;;;;4976233;28;20045;-67
2021/11/17 07:18:09;;;;;;;13.50;6.65;;;6.90;91.60;;;;;;4978167;28;20046;-67
2021/11/17 07:20:37;;;;;;;13.75;6.68;;;6.80;91.50;;;;;;4971033;28;20533;-67
2021/11/17 07:23:04;;;;;;;11.15;6.32;;;6.80;91.60;;;;;;4973414;28;20096;-67
2021/11/17 07:25:29;;;;;;;11.45;6.05;;;6.70;91.50;;;;;;4969947;28;20046;-67
2021/11/17 07:27:56;;;;;;;12.13;6.82;;;6.80;91.60;;;;;;4971089;28;20768;-67
2021/11/17 07:30:25;;;;;;;12.98;6.78;;;6.80;91.60;;;;;;4970138;28;20126;-67
2021/11/17 07:32:50;;;;;;;11.85;6.35;;;6.90;91.70;;;;;;4973404;28;20046;-67
2021/11/17 07:35:20;;;;;;;14.50;6.70;;;6.90;91.60;;;;;;4972299;28;20038;-68
2021/11/17 07:37:46;;;;;;;13.98;7.18;;;6.90;91.70;;;;;;4971440;28;20030;-68
2021/11/17 07:40:14;;;;;;;17.00;7.55;;;6.90;91.50;;;;;;4969782;28;20984;-67
2021/11/17 07:42:41;;;;;;;14.50;8.73;;;6.80;91.80;;;;;;4973064;28;20053;-67
2021/11/17 07:45:09;;;;;;;13.80;7.80;;;6.80;91.60;;;;;;4970777;28;20030;-68
2021/11/17 07:47:35;;;;;;;16.83;8.73;;;6.80;91.80;;;;;;4970259;28;20046;-67
2021/11/17 07:50:02;;;;;;;15.20;7.22;;;6.80;91.70;;;;;;4973601;28;20049;-67
2021/11/17 07:52:28;;;;;;;15.55;8.48;;;6.90;91.80;;;;;;4973587;28;20935;-67
2021/11/17 07:54:54;;;;;;;15.63;8.50;;;6.90;91.60;;;;;;4971598;28;20038;-67
2021/11/17 07:57:20;;;;;;;13.55;6.78;;;6.90;91.60;;;;;;4981239;28;20046;-67
2021/11/17 07:59:46;;;;;;;15.68;7.70;;;6.80;91.50;;;;;;4976753;28;20027;-67
2021/11/17 08:02:13;;;;;;;13.20;7.28;;;6.80;91.60;;;;;;4978804;28;20407;-67
2021/11/17 08:04:41;;;;;;;12.63;7.57;;;6.80;91.90;;;;;;4972556;28;20034;-67
2021/11/17 08:07:13;;;;;;;12.57;6.95;;;6.80;91.90;;;;;;4982092;28;20050;-68
2021/11/17 08:09:42;;;;;;;12.75;6.72;;;6.70;92.00;;;;;;4972275;28;20260;-68
2021/11/17 08:12:08;;;;;;;14.00;6.72;;;6.70;92.10;;;;;;4980489;28;20034;-67
2021/11/17 08:14:34;;;;;;;13.98;7.32;;;6.70;91.90;;;;;;4975639;28;20064;-67
2021/11/17 08:17:00;;;;;;;16.95;7.68;;;6.80;92.00;;;;;;4976798;28;20058;-68
2021/11/17 08:19:26;;;;;;;17.35;9.20;;;6.90;91.90;;;;;;4977708;28;20030;-68
2021/11/17 08:21:52;;;;;;;16.83;7.85;;;6.80;91.80;;;;;;4995415;28;20030;-68
2021/11/17 08:24:18;;;;;;;13.73;7.25;;;7.00;91.90;;;;;;4976607;28;20026;-68
2021/11/17 08:26:44;;;;;;;12.15;7.15;;;7.00;91.70;;;;;;4977121;28;20121;-68
2021/11/17 08:29:10;;;;;;;16.42;8.10;;;7.20;91.20;;;;;;4976382;28;20069;-68
2021/11/17 08:31:37;;;;;;;14.55;7.72;;;7.10;91.20;;;;;;4980910;28;20121;-68
2021/11/17 08:34:03;;;;;;;14.35;7.25;;;7.10;91.10;;;;;;4972048;28;20039;-68
2021/11/17 08:36:29;;;;;;;17.65;8.15;;;7.00;91.40;;;;;;4974088;28;20037;-68
2021/11/17 08:38:55;;;;;;;14.13;7.60;;;7.10;91.40;;;;;;4973095;28;20038;-68
2021/11/17 08:41:23;;;;;;;15.95;7.20;;;7.20;91.50;;;;;;4975148;28;20682;-68
2021/11/17 08:43:49;;;;;;;14.38;6.65;;;7.20;91.20;;;;;;4980382;28;20767;-67
2021/11/17 08:46:15;;;;;;;16.40;7.97;;;7.30;91.10;;;;;;4976691;28;20072;-66
2021/11/17 08:48:41;;;;;;;16.10;7.80;;;7.40;90.90;;;;;;4978087;28;20122;-66
2021/11/17 08:51:11;;;;;;;13.88;7.55;;;7.40;91.10;;;;;;4975260;28;20047;-67
2021/11/17 08:53:40;;;;;;;15.07;7.38;;;7.40;90.70;;;;;;4969321;28;20429;-66
2021/11/17 08:56:08;;;;;;;12.73;7.03;;;7.50;90.70;;;;;;4978153;28;20089;-67
2021/11/17 08:58:35;;;;;;;15.32;7.50;;;7.40;90.20;;;;;;4974692;28;20030;-68
2021/11/17 09:01:01;;;;;;;13.40;6.75;;;7.50;90.50;;;;;;4977395;28;20033;-68
2021/11/17 09:03:27;;;;;;;13.00;6.88;;;7.60;90.50;;;;;;4975009;28;20054;-67
2021/11/17 09:05:57;;;;;;;12.40;6.63;;;7.50;90.50;;;;;;4971628;28;20121;-66
2021/11/17 09:08:26;;;;;;;13.23;7.07;;;7.40;90.30;;;;;;4977073;28;20065;-66
2021/11/17 09:10:59;;;;;;;14.55;7.45;;;7.50;90.50;;;;;;4977059;28;20031;-67
2021/11/17 09:13:25;;;;;;;13.38;6.40;;;7.60;90.20;;;;;;4971982;28;20543;-66
2021/11/17 09:15:54;;;;;;;11.18;6.35;;;7.60;90.10;;;;;;4975074;28;20534;-66
2021/11/17 09:18:23;;;;;;;11.88;5.90;;;7.50;89.60;;;;;;4978737;28;20957;-67
2021/11/17 09:20:50;;;;;;;13.48;6.97;;;7.50;89.90;;;;;;4972488;28;20065;-66
2021/11/17 09:23:17;;;;;;;13.50;7.15;;;7.50;90.20;;;;;;4970627;28;20566;-66
2021/11/17 09:25:43;;;;;;;10.52;6.03;;;7.60;90.20;;;;;;4969217;28;20117;-66
2021/11/17 09:28:09;;;;;;;11.98;7.07;;;7.50;89.80;;;;;;4965440;28;20514;-66
2021/11/17 09:30:38;;;;;;;12.45;6.40;;;7.50;90.30;;;;;;4974453;28;20077;-66
2021/11/17 09:33:07;;;;;;;12.93;6.68;;;7.40;90.50;;;;;;4975962;28;20044;-68
2021/11/17 09:35:34;;;;;;;13.35;6.88;;;7.50;90.50;;;;;;4970693;28;20467;-68
2021/11/17 09:38:04;;;;;;;16.23;7.35;;;7.50;90.10;;;;;;4973144;28;20042;-67
2021/11/17 09:40:46;;;;;;;14.05;7.13;;;7.50;90.40;;;;;;4971988;28;20058;-67
2021/11/17 09:43:16;;;;;;;13.57;7.45;;;7.30;90.70;;;;;;4970803;28;20154;-66
2021/11/17 09:45:44;;;;;;;16.17;7.80;;;7.30;90.90;;;;;;4972834;28;20406;-67
2021/11/17 09:48:16;;;;;;;14.75;6.80;;;7.30;90.90;;;;;;4965802;28;20105;-67
2021/11/17 09:51:01;;;;;;;14.43;7.22;;;7.60;90.80;;;;;;4973835;28;20038;-67
2021/11/17 09:53:52;;;;;;;15.00;7.32;;;7.70;90.30;;;;;;4971656;28;20509;-67
2021/11/17 09:56:27;;;;;;;16.55;8.75;;;7.70;90.40;;;;;;4971985;28;20117;-68
2021/11/17 09:59:33;;;;;;;17.08;7.70;;;7.80;90.30;;;;;;4983599;28;20041;-67
2021/11/17 10:02:07;;;;;;;14.68;6.75;;;7.70;89.00;;;;;;4928693;29;20040;-67
2021/11/17 10:04:53;;;;;;;12.85;7.13;;;7.70;89.30;;;;;;4966735;28;20578;-67
2021/11/17 10:08:13;;;;;;;14.57;7.28;;;7.70;89.40;;;;;;4973470;28;20089;-66
2021/11/17 10:11:17;;;;;;;15.68;7.07;;;7.80;89.90;;;;;;4977320;28;20717;-66
2021/11/17 10:13:58;;;;;;;12.32;6.93;;;7.70;90.00;;;;;;4969047;28;20049;-66
2021/11/17 10:16:25;;;;;;;13.02;7.20;;;7.70;89.60;;;;;;4976434;28;20126;-66
2021/11/17 10:19:22;;;;;;;13.60;7.00;;;7.70;89.60;;;;;;4976308;28;20072;-67
2021/11/17 10:21:58;;;;;;;14.35;6.57;;;7.60;90.00;;;;;;4975875;28;20046;-67
2021/11/17 10:24:51;;;;;;;14.05;7.35;;;7.50;90.20;;;;;;4969850;28;20038;-65
2021/11/17 10:27:28;;;;;;;13.95;6.75;;;7.60;90.10;;;;;;4972859;28;20035;-66
2021/11/17 10:30:00;;;;;;;12.00;6.22;;;7.60;89.80;;;;;;4992727;28;20060;-66
2021/11/17 10:32:37;;;;;;;14.30;7.40;;;7.60;90.10;;;;;;4980906;28;20069;-67
2021/11/17 10:35:25;;;;;;;11.48;6.68;;;7.70;89.90;;;;;;4972388;28;20751;-67
2021/11/17 10:38:26;;;;;;;12.02;6.40;;;7.60;90.10;;;;;;4964701;28;20057;-66
2021/11/17 10:40:58;;;;;;;10.98;6.68;;;7.60;90.50;;;;;;4967585;28;20048;-67
2021/11/17 10:43:33;;;;;;;12.25;6.97;;;7.70;90.50;;;;;;4971289;28;20570;-67
2021/11/17 10:46:48;;;;;;;12.55;6.03;;;7.80;90.00;;;;;;4977267;28;20039;-66
2021/11/17 10:49:18;;;;;;;10.20;5.65;;;7.90;89.40;;;;;;4959530;28;20121;-66
2021/11/17 10:52:06;;;;;;;12.95;6.85;;;7.90;88.90;;;;;;4970813;28;20058;-66
2021/11/17 10:54:33;;;;;;;13.30;6.93;;;7.70;89.40;;;;;;4972130;28;20046;-66
2021/11/17 10:57:11;;;;;;;13.18;7.00;;;7.90;89.80;;;;;;4971535;28;20037;-65
2021/11/17 10:59:38;;;;;;;13.13;6.50;;;7.80;88.60;;;;;;4977334;28;20057;-66
2021/11/17 11:02:09;;;;;;;11.07;6.40;;;7.80;88.80;;;;;;4972304;28;20102;-66
2021/11/17 11:04:40;;;;;;;12.25;6.38;;;7.80;89.00;;;;;;4968137;28;20046;-66
2021/11/17 11:07:51;;;;;;;11.65;6.55;;;7.60;89.30;;;;;;4970128;28;20061;-66
2021/11/17 11:10:39;;;;;;;11.18;6.18;;;7.60;90.00;;;;;;4941367;28;20047;-66
2021/11/17 11:13:10;;;;;;;11.68;6.55;;;7.80;90.00;;;;;;4972835;28;20062;-65
2021/11/17 11:15:43;;;;;;;10.30;6.30;;;7.60;90.10;;;;;;4979284;28;20038;-66
2021/11/17 11:18:09;;;;;;;10.02;6.60;;;7.50;90.40;;;;;;4975451;28;20106;-66
2021/11/17 11:20:44;;;;;;;13.10;6.50;;;7.50;90.20;;;;;;4967442;28;20820;-66
2021/11/17 11:23:28;;;;;;;14.88;7.18;;;7.60;90.30;;;;;;4977835;28;20065;-66
2021/11/17 11:26:05;;;;;;;10.63;6.43;;;7.70;90.20;;;;;;4971705;28;20035;-66
2021/11/17 11:28:35;;;;;;;11.45;5.68;;;7.80;89.30;;;;;;4970360;28;20074;-66
2021/11/17 11:31:01;;;;;;;15.68;6.80;;;7.80;89.10;;;;;;4975945;28;20403;-66
2021/11/17 11:33:31;;;;;;;12.48;5.88;;;7.90;89.50;;;;;;4981780;28;20092;-66
2021/11/17 11:36:12;;;;;;;11.98;6.40;;;7.90;88.90;;;;;;4975867;28;20079;-66
2021/11/17 11:38:49;;;;;;;9.68;5.28;;;8.00;89.30;;;;;;4976873;28;20027;-66
2021/11/17 11:41:42;;;;;;;11.85;6.38;;;8.00;88.60;;;;;;4969059;28;20076;-66
2021/11/17 11:44:18;;;;;;;14.88;7.60;;;7.90;88.60;;;;;;4976398;28;20039;-66
2021/11/17 11:46:48;;;;;;;13.18;7.15;;;7.90;88.80;;;;;;4978354;28;20637;-66
2021/11/17 11:49:37;;;;;;;10.98;6.47;;;7.90;89.40;;;;;;4977178;28;20049;-66
2021/11/17 11:52:24;;;;;;;15.20;7.07;;;8.00;88.80;;;;;;4975376;28;20049;-66
2021/11/17 11:54:55;;;;;;;;;;;8.10;88.90;;;;;;4977292;28;20602;-65
2021/11/17 11:57:40;;;;;;;11.85;6.25;;;8.10;88.00;;;;;;4972361;28;20567;-66
2021/11/17 12:00:23;;;;;;;12.55;6.18;;;8.20;87.60;;;;;;4979778;28;20030;-65
2021/11/17 12:02:52;;;;;;;13.07;5.95;;;8.40;87.40;;;;;;4977655;28;20084;-67
2021/11/17 12:06:00;;;;;;;13.75;7.00;;;8.50;87.50;;;;;;4969315;28;20034;-65
2021/11/17 12:08:31;;;;;;;11.77;6.90;;;8.70;85.90;;;;;;4981947;28;20586;-66
2021/11/17 12:11:03;;;;;;;9.80;5.97;;;8.90;84.30;;;;;;4977873;28;20801;-64
2021/11/17 12:13:35;;;;;;;13.57;6.50;;;9.00;83.80;;;;;;4977918;28;20546;-65
2021/11/17 12:16:12;;;;;;;12.32;6.40;;;9.00;83.50;;;;;;4977192;28;20061;-66
2021/11/17 12:19:06;;;;;;;8.32;5.30;;;9.10;83.50;;;;;;4974299;28;20153;-67
2021/11/17 12:21:41;;;;;;;10.93;5.20;;;9.00;82.20;;;;;;4974592;28;20050;-66
2021/11/17 12:24:20;;;;;;;10.45;5.57;;;9.10;83.20;;;;;;4976174;28;20470;-67
2021/11/17 12:26:56;;;;;;;10.02;5.53;;;9.20;82.70;;;;;;4971778;28;20042;-67
2021/11/17 12:29:51;;;;;;;10.20;5.85;;;9.30;82.70;;;;;;4980908;28;20034;-67
2021/11/17 12:32:25;;;;;;;12.60;6.07;;;9.30;81.60;;;;;;4974626;28;20042;-66
2021/11/17 12:34:57;;;;;;;10.32;6.45;;;9.30;81.80;;;;;;4976297;28;20153;-66
2021/11/17 12:37:48;;;;;;;9.85;5.32;;;9.30;81.70;;;;;;4971136;28;20058;-67
2021/11/17 12:40:34;;;;;;;15.55;6.63;;;9.30;82.10;;;;;;4976562;28;20057;-66
2021/11/17 12:43:04;;;;;;;10.55;5.93;;;9.20;81.50;;;;;;4963547;28;20054;-68
2021/11/17 12:45:38;;;;;;;10.90;5.40;;;9.20;82.20;;;;;;4977955;28;20046;-67
2021/11/17 12:48:28;;;;;;;10.98;5.13;;;9.10;81.10;;;;;;4978032;28;20050;-68
2021/11/17 12:51:23;;;;;;;10.43;5.78;;;9.20;81.70;;;;;;4968411;28;20145;-65
2021/11/17 12:54:10;;;;;;;8.85;5.22;;;9.30;81.40;;;;;;4977527;28;20660;-65
2021/11/17 12:56:49;;;;;;;11.05;5.97;;;9.30;80.90;;;;;;4973188;28;20736;-65
2021/11/17 12:59:19;;;;;;;9.88;5.70;;;9.30;81.00;;;;;;4972739;28;20046;-65
2021/11/17 13:01:50;;;;;;;11.10;6.25;;;9.20;81.10;;;;;;4974839;28;20503;-66
2021/11/17 13:04:23;;;;;;;9.23;5.65;;;9.20;81.60;;;;;;4971466;28;20097;-64
2021/11/17 13:06:58;;;;;;;10.05;5.30;;;9.10;81.60;;;;;;4973166;28;20042;-67
2021/11/17 13:09:42;;;;;;;37.53;20.05;;;9.10;82.20;;;;;;4970933;28;20469;-66
2021/11/17 13:12:09;;;;;;;19.35;10.25;;;9.10;82.60;;;;;;4969051;28;20081;-65
2021/11/17 13:14:44;;;;;;;10.25;6.25;;;9.20;82.70;;;;;;4979538;28;20042;-65
2021/11/17 13:17:30;;;;;;;12.35;6.13;;;9.20;82.40;;;;;;4972937;28;20030;-65
2021/11/17 13:19:59;;;;;;;10.48;5.53;;;9.30;82.10;;;;;;4970234;28;20027;-65
2021/11/17 13:22:25;;;;;;;9.88;5.60;;;9.30;81.40;;;;;;4972744;28;20052;-64
2021/11/17 13:25:11;;;;;;;9.57;5.47;;;9.30;82.20;;;;;;4979940;28;20030;-65
2021/11/17 13:27:39;;;;;;;;;;;9.30;82.10;;;;;;4962712;28;20068;-65
2021/11/17 13:30:29;;;;;;;8.43;4.47;;;9.20;81.40;;;;;;4976617;28;19914;-66
2021/11/17 13:32:56;;;;;;;7.25;5.18;;;9.10;82.40;;;;;;4991592;28;20120;-65
2021/11/17 13:35:35;;;;;;;9.82;4.85;;;9.10;82.80;;;;;;4974844;28;20026;-66
2021/11/17 13:38:24;;;;;;;8.00;4.30;;;9.10;82.50;;;;;;4973405;28;20038;-65
2021/11/17 13:40:55;;;;;;;8.43;4.50;;;9.10;82.20;;;;;;4967178;28;20035;-66
2021/11/17 13:43:22;;;;;;;6.97;4.50;;;8.80;83.30;;;;;;4973431;28;20081;-66
2021/11/17 13:45:51;;;;;;;6.85;4.50;;;8.80;84.20;;;;;;4978043;28;20122;-66
2021/11/17 13:48:20;;;;;;;7.22;4.20;;;8.90;84.30;;;;;;4971129;28;20077;-66
2021/11/17 13:50:48;;;;;;;6.88;4.50;;;8.90;83.50;;;;;;4969413;28;20054;-67
2021/11/17 13:53:15;;;;;;;9.10;4.22;;;8.90;84.10;;;;;;4969619;28;20558;-67
2021/11/17 13:55:49;;;;;;;7.38;4.03;;;9.00;83.80;;;;;;4971570;28;20056;-67
2021/11/17 13:58:15;;;;;;;11.25;4.10;;;8.70;83.90;;;;;;4969729;28;20031;-66
2021/11/17 14:00:42;;;;;;;6.78;4.43;;;8.70;84.50;;;;;;4976420;28;20035;-66
2021/11/17 14:03:09;;;;;;;5.72;3.80;;;8.70;84.50;;;;;;4964917;28;20046;-67
2021/11/17 14:05:39;;;;;;;6.07;3.83;;;8.80;84.50;;;;;;4978502;28;20038;-67
2021/11/17 14:08:07;;;;;;;8.10;4.47;;;8.70;84.50;;;;;;4971749;28;20034;-67
2021/11/17 14:10:34;;;;;;;5.43;3.25;;;8.80;84.60;;;;;;4974550;28;20132;-67
2021/11/17 14:13:01;;;;;;;6.80;3.75;;;8.90;84.10;;;;;;4970261;28;20062;-66
2021/11/17 14:15:28;;;;;;;6.75;3.63;;;8.90;83.70;;;;;;4974080;28;20187;-67
2021/11/17 14:17:54;;;;;;;6.88;3.67;;;9.00;83.70;;;;;;4975493;28;20034;-66
2021/11/17 14:20:21;;;;;;;9.98;3.85;;;8.90;84.20;;;;;;4972929;28;20533;-67
2021/11/17 14:22:47;;;;;;;6.00;3.45;;;8.80;84.10;;;;;;4966416;28;20125;-67
2021/11/17 14:25:18;;;;;;;7.32;3.83;;;8.90;84.20;;;;;;4970016;28;20030;-67
2021/11/17 14:27:57;;;;;;;4.88;3.28;;;8.90;84.10;;;;;;4975037;28;20041;-65
2021/11/17 14:30:41;;;;;;;7.13;4.05;;;8.90;83.70;;;;;;4975848;28;20039;-65
2021/11/17 14:33:09;;;;;;;4.22;2.72;;;8.90;84.40;;;;;;4973965;28;20035;-66
2021/11/17 14:35:35;;;;;;;5.72;3.60;;;8.90;84.70;;;;;;4974156;28;20038;-67
2021/11/17 14:38:03;;;;;;;5.55;3.35;;;8.90;84.60;;;;;;4967412;28;20142;-67
2021/11/17 14:40:30;;;;;;;7.28;3.50;;;8.80;84.80;;;;;;4981467;28;20137;-66
2021/11/17 14:42:56;;;;;;;6.45;3.67;;;8.80;84.70;;;;;;4981417;28;20049;-67
2021/11/17 14:45:25;;;;;;;3.85;2.67;;;8.50;85.40;;;;;;4966102;28;20507;-66
2021/11/17 14:47:51;;;;;;;4.22;3.00;;;8.60;85.80;;;;;;4971379;28;20045;-67
2021/11/17 14:50:18;;;;;;;7.97;3.72;;;8.60;86.90;;;;;;4973557;28;20034;-66
2021/11/17 14:52:44;;;;;;;6.13;3.08;;;8.60;87.20;;;;;;4972398;28;20671;-66
2021/11/17 14:55:13;;;;;;;6.88;3.83;;;8.40;88.10;;;;;;4971062;28;20133;-66
2021/11/17 14:57:41;;;;;;;6.53;3.55;;;8.40;89.20;;;;;;4970942;28;20401;-66
2021/11/17 15:00:17;;;;;;;6.15;3.97;;;8.40;89.80;;;;;;4975035;28;20034;-66
2021/11/17 15:02:43;;;;;;;;;;;8.40;90.20;;;;;;4978489;28;20034;-66
2021/11/17 15:05:09;;;;;;;5.97;3.73;;;8.30;90.30;;;;;;4969829;28;19920;-67
2021/11/17 15:07:35;;;;;;;5.25;3.80;;;8.30;90.50;;;;;;4968090;28;20038;-66
2021/11/17 15:10:01;;;;;;;6.97;3.95;;;8.30;90.30;;;;;;4972274;28;20380;-66
2021/11/17 15:12:32;;;;;;;6.60;3.90;;;8.30;90.40;;;;;;4973350;28;20557;-67
2021/11/17 15:15:00;;;;;;;5.47;3.78;;;8.40;90.40;;;;;;4976690;28;20070;-66
2021/11/17 15:17:27;;;;;;;4.97;3.55;;;8.40;90.30;;;;;;4971566;28;20078;-66
2021/11/17 15:19:52;;;;;;;5.55;3.85;;;8.50;90.30;;;;;;4971447;28;20031;-67
2021/11/17 15:22:19;;;;;;;7.93;3.28;;;8.40;90.10;;;;;;4965268;28;20022;-66
2021/11/17 15:24:45;;;;;;;5.18;3.50;;;8.50;90.10;;;;;;4973787;28;20038;-67
2021/11/17 15:27:54;;;;;;;5.88;3.00;;;8.50;90.00;;;;;;4966151;28;20050;-68
2021/11/17 15:30:26;;;;;;;5.32;3.22;;;8.50;90.10;;;;;;4921511;29;20047;-67
2021/11/17 15:32:54;;;;;;;6.43;3.45;;;8.30;90.10;;;;;;4932728;29;20416;-67
2021/11/17 15:35:22;;;;;;;6.18;3.55;;;8.40;90.10;;;;;;4950772;28;20112;-68
2021/11/17 15:37:50;;;;;;;6.97;3.90;;;8.30;90.10;;;;;;4970305;28;20050;-67
2021/11/17 15:40:19;;;;;;;6.75;3.50;;;8.30;90.30;;;;;;4983135;28;20043;-68
2021/11/17 15:42:48;;;;;;;6.97;3.22;;;8.30;90.30;;;;;;4962229;28;20034;-67
2021/11/17 15:45:14;;;;;;;4.85;3.05;;;8.30;90.30;;;;;;4971678;28;20038;-68
2021/11/17 15:47:40;;;;;;;4.85;3.08;;;8.30;90.50;;;;;;4973812;28;20034;-67
2021/11/17 15:50:10;;;;;;;5.35;3.05;;;8.20;90.50;;;;;;4964727;28;20679;-67
2021/11/17 15:52:36;;;;;;;5.50;3.25;;;8.10;90.80;;;;;;4967172;28;20616;-67
2021/11/17 15:55:03;;;;;;;7.05;3.78;;;8.00;91.00;;;;;;4972323;28;20034;-66
2021/11/17 15:57:29;;;;;;;5.15;2.60;;;8.10;91.00;;;;;;4974181;28;20084;-67